sensor_id;sensor_type;location;lat;lon;timestamp;P1;durP1;ratioP1;P2;durP2;ratioP2
9809;SDS011;4944;52.514;13.192;2022-11-20T00:01:04;11.60;;;8.30;;
9809;SDS011;4944;52.514;13.192;2022-11-20T00:03:31;9.47;;;7.80;;
9809;SDS011;4944;52.514;13.192;2022-11-20T00:05:59;11.03;;;8.37;;
9809;SDS011;4944;52.514;13.192;2022-11-20T00:08:26;10.10;;;8.00;;
9809;SDS011;4944;52.514;13.192;2022-11-20T00:10:54;12.00;;;8.43;;
9809;SDS011;4944;52.514;13.192;2022-11-20T00:13:21;10.40;;;8.37;;
9809;SDS011;4944;52.514;13.192;2022-11-20T00:15:48;9.30;;;7.93;;
9809;SDS011;4944;52.514;13.192;2022-11-20T00:18:22;10.07;;;7.67;;
9809;SDS011;4944;52.514;13.192;2022-11-20T00:20:49;9.13;;;8.20;;
9809;SDS011;4944;52.514;13.192;2022-11-20T00:23:16;10.17;;;8.53;;
9809;SDS011;4944;52.514;13.192;2022-11-20T00:25:43;10.93;;;8.73;;
9809;SDS011;4944;52.514;13.192;2022-11-20T00:28:11;9.43;;;7.73;;
9809;SDS011;4944;52.514;13.192;2022-11-20T00:30:38;11.37;;;9.30;;
9809;SDS011;4944;52.514;13.192;2022-11-20T00:33:05;9.27;;;7.60;;
9809;SDS011;4944;52.514;13.192;2022-11-20T00:35:31;11.77;;;9.07;;
9809;SDS011;4944;52.514;13.192;2022-11-20T00:37:58;11.63;;;9.33;;
9809;SDS011;4944;52.514;13.192;2022-11-20T00:40:25;10.13;;;8.87;;
9809;SDS011;4944;52.514;13.192;2022-11-20T00:42:52;11.03;;;8.20;;
9809;SDS011;4944;52.514;13.192;2022-11-20T00:45:20;10.87;;;8.80;;
9809;SDS011;4944;52.514;13.192;2022-11-20T00:47:47;13.60;;;9.97;;
9809;SDS011;4944;52.514;13.192;2022-11-20T00:50:14;14.40;;;9.90;;
9809;SDS011;4944;52.514;13.192;2022-11-20T00:52:41;11.57;;;9.33;;
9809;SDS011;4944;52.514;13.192;2022-11-20T00:55:08;12.27;;;9.20;;
9809;SDS011;4944;52.514;13.192;2022-11-20T00:57:35;11.40;;;8.90;;
9809;SDS011;4944;52.514;13.192;2022-11-20T01:00:02;10.33;;;7.93;;
9809;SDS011;4944;52.514;13.192;2022-11-20T01:02:31;8.97;;;7.83;;
9809;SDS011;4944;52.514;13.192;2022-11-20T01:04:57;8.30;;;7.50;;
9809;SDS011;4944;52.514;13.192;2022-11-20T01:07:24;8.93;;;7.83;;
9809;SDS011;4944;52.514;13.192;2022-11-20T01:09:51;10.17;;;7.87;;
9809;SDS011;4944;52.514;13.192;2022-11-20T01:12:18;7.80;;;7.00;;
9809;SDS011;4944;52.514;13.192;2022-11-20T01:14:45;9.30;;;7.73;;
9809;SDS011;4944;52.514;13.192;2022-11-20T01:17:13;10.20;;;7.00;;
9809;SDS011;4944;52.514;13.192;2022-11-20T01:19:41;8.33;;;7.17;;
9809;SDS011;4944;52.514;13.192;2022-11-20T01:22:09;7.57;;;6.80;;
9809;SDS011;4944;52.514;13.192;2022-11-20T01:24:36;8.83;;;7.47;;
9809;SDS011;4944;52.514;13.192;2022-11-20T01:27:02;8.43;;;7.33;;
9809;SDS011;4944;52.514;13.192;2022-11-20T01:29:29;8.13;;;7.33;;
9809;SDS011;4944;52.514;13.192;2022-11-20T01:31:56;9.87;;;8.00;;
9809;SDS011;4944;52.514;13.192;2022-11-20T01:34:23;9.37;;;7.73;;
9809;SDS011;4944;52.514;13.192;2022-11-20T01:36:52;8.87;;;7.50;;
9809;SDS011;4944;52.514;13.192;2022-11-20T01:39:19;8.83;;;7.30;;
9809;SDS011;4944;52.514;13.192;2022-11-20T01:41:48;8.50;;;7.27;;
9809;SDS011;4944;52.514;13.192;2022-11-20T01:44:45;9.63;;;7.70;;
9809;SDS011;4944;52.514;13.192;2022-11-20T01:47:16;9.43;;;7.13;;
9809;SDS011;4944;52.514;13.192;2022-11-20T01:49:48;9.10;;;7.47;;
9809;SDS011;4944;52.514;13.192;2022-11-20T01:52:20;9.00;;;7.70;;
9809;SDS011;4944;52.514;13.192;2022-11-20T01:54:50;9.17;;;7.60;;
9809;SDS011;4944;52.514;13.192;2022-11-20T01:57:20;9.03;;;8.07;;
9809;SDS011;4944;52.514;13.192;2022-11-20T01:59:51;8.40;;;7.50;;
9809;SDS011;4944;52.514;13.192;2022-11-20T02:02:21;9.50;;;7.80;;
9809;SDS011;4944;52.514;13.192;2022-11-20T02:04:48;9.47;;;7.60;;
9809;SDS011;4944;52.514;13.192;2022-11-20T02:07:17;8.77;;;7.73;;
9809;SDS011;4944;52.514;13.192;2022-11-20T02:09:47;10.03;;;8.07;;
9809;SDS011;4944;52.514;13.192;2022-11-20T02:12:13;11.17;;;8.63;;
9809;SDS011;4944;52.514;13.192;2022-11-20T02:14:55;9.70;;;7.80;;
9809;SDS011;4944;52.514;13.192;2022-11-20T02:17:22;9.63;;;8.43;;
9809;SDS011;4944;52.514;13.192;2022-11-20T02:19:50;10.37;;;8.60;;
9809;SDS011;4944;52.514;13.192;2022-11-20T02:22:18;9.67;;;8.27;;
9809;SDS011;4944;52.514;13.192;2022-11-20T02:24:50;11.33;;;8.53;;
9809;SDS011;4944;52.514;13.192;2022-11-20T02:27:18;11.07;;;8.60;;
9809;SDS011;4944;52.514;13.192;2022-11-20T02:29:46;11.20;;;8.60;;
9809;SDS011;4944;52.514;13.192;2022-11-20T02:32:18;10.30;;;8.60;;
9809;SDS011;4944;52.514;13.192;2022-11-20T02:34:45;10.00;;;8.67;;
9809;SDS011;4944;52.514;13.192;2022-11-20T02:37:12;11.10;;;9.10;;
9809;SDS011;4944;52.514;13.192;2022-11-20T02:39:40;10.53;;;8.17;;
9809;SDS011;4944;52.514;13.192;2022-11-20T02:42:12;10.83;;;8.27;;
9809;SDS011;4944;52.514;13.192;2022-11-20T02:44:38;10.53;;;8.93;;
9809;SDS011;4944;52.514;13.192;2022-11-20T02:47:06;13.37;;;9.27;;
9809;SDS011;4944;52.514;13.192;2022-11-20T02:49:33;10.83;;;8.37;;
9809;SDS011;4944;52.514;13.192;2022-11-20T02:52:00;10.23;;;8.90;;
9809;SDS011;4944;52.514;13.192;2022-11-20T02:54:26;12.60;;;9.10;;
9809;SDS011;4944;52.514;13.192;2022-11-20T02:56:53;11.87;;;9.13;;
9809;SDS011;4944;52.514;13.192;2022-11-20T02:59:22;11.13;;;9.07;;
9809;SDS011;4944;52.514;13.192;2022-11-20T03:01:48;10.37;;;8.90;;
9809;SDS011;4944;52.514;13.192;2022-11-20T03:04:15;10.93;;;9.00;;
9809;SDS011;4944;52.514;13.192;2022-11-20T03:06:42;13.03;;;9.70;;
9809;SDS011;4944;52.514;13.192;2022-11-20T03:09:11;10.97;;;8.87;;
9809;SDS011;4944;52.514;13.192;2022-11-20T03:11:38;10.87;;;9.20;;
9809;SDS011;4944;52.514;13.192;2022-11-20T03:14:05;12.23;;;8.80;;
9809;SDS011;4944;52.514;13.192;2022-11-20T03:16:33;9.77;;;8.57;;
9809;SDS011;4944;52.514;13.192;2022-11-20T03:19:00;11.77;;;9.40;;
9809;SDS011;4944;52.514;13.192;2022-11-20T03:21:27;11.47;;;9.10;;
9809;SDS011;4944;52.514;13.192;2022-11-20T03:23:54;10.77;;;9.50;;
9809;SDS011;4944;52.514;13.192;2022-11-20T03:26:21;10.97;;;9.40;;
9809;SDS011;4944;52.514;13.192;2022-11-20T03:28:50;10.33;;;9.07;;
9809;SDS011;4944;52.514;13.192;2022-11-20T03:31:19;11.90;;;8.47;;
9809;SDS011;4944;52.514;13.192;2022-11-20T03:33:48;10.03;;;8.63;;
9809;SDS011;4944;52.514;13.192;2022-11-20T03:36:16;13.00;;;9.20;;
9809;SDS011;4944;52.514;13.192;2022-11-20T03:38:44;12.07;;;9.10;;
9809;SDS011;4944;52.514;13.192;2022-11-20T03:41:12;11.53;;;9.03;;
9809;SDS011;4944;52.514;13.192;2022-11-20T03:43:40;11.93;;;9.40;;
9809;SDS011;4944;52.514;13.192;2022-11-20T03:46:07;12.03;;;9.27;;
9809;SDS011;4944;52.514;13.192;2022-11-20T03:48:34;11.53;;;8.87;;
9809;SDS011;4944;52.514;13.192;2022-11-20T03:51:10;11.67;;;9.57;;
9809;SDS011;4944;52.514;13.192;2022-11-20T03:53:38;11.37;;;9.53;;
9809;SDS011;4944;52.514;13.192;2022-11-20T03:56:05;13.83;;;9.60;;
9809;SDS011;4944;52.514;13.192;2022-11-20T03:58:33;12.63;;;9.27;;
9809;SDS011;4944;52.514;13.192;2022-11-20T04:01:05;12.23;;;9.40;;
9809;SDS011;4944;52.514;13.192;2022-11-20T04:03:33;12.83;;;9.50;;
9809;SDS011;4944;52.514;13.192;2022-11-20T04:06:04;12.67;;;10.00;;
9809;SDS011;4944;52.514;13.192;2022-11-20T04:08:33;12.93;;;9.33;;
9809;SDS011;4944;52.514;13.192;2022-11-20T04:11:07;12.60;;;9.57;;
9809;SDS011;4944;52.514;13.192;2022-11-20T04:13:38;12.57;;;9.53;;
9809;SDS011;4944;52.514;13.192;2022-11-20T04:16:06;12.17;;;10.40;;
9809;SDS011;4944;52.514;13.192;2022-11-20T04:18:34;13.10;;;10.50;;
9809;SDS011;4944;52.514;13.192;2022-11-20T04:21:01;11.83;;;9.47;;
9809;SDS011;4944;52.514;13.192;2022-11-20T04:23:28;11.53;;;9.63;;
9809;SDS011;4944;52.514;13.192;2022-11-20T04:26:01;12.00;;;9.90;;
9809;SDS011;4944;52.514;13.192;2022-11-20T04:28:30;12.60;;;9.57;;
9809;SDS011;4944;52.514;13.192;2022-11-20T04:31:03;13.47;;;10.07;;
9809;SDS011;4944;52.514;13.192;2022-11-20T04:33:31;11.30;;;8.97;;
9809;SDS011;4944;52.514;13.192;2022-11-20T04:36:02;12.03;;;9.43;;
9809;SDS011;4944;52.514;13.192;2022-11-20T04:38:29;12.13;;;9.33;;
9809;SDS011;4944;52.514;13.192;2022-11-20T04:40:57;10.90;;;8.80;;
9809;SDS011;4944;52.514;13.192;2022-11-20T04:43:26;11.87;;;9.53;;
9809;SDS011;4944;52.514;13.192;2022-11-20T04:45:53;13.40;;;9.70;;
9809;SDS011;4944;52.514;13.192;2022-11-20T04:48:20;12.23;;;9.57;;
9809;SDS011;4944;52.514;13.192;2022-11-20T04:50:47;12.07;;;9.57;;
9809;SDS011;4944;52.514;13.192;2022-11-20T04:53:14;13.20;;;10.13;;
9809;SDS011;4944;52.514;13.192;2022-11-20T04:55:41;12.63;;;9.33;;
9809;SDS011;4944;52.514;13.192;2022-11-20T04:58:08;11.67;;;9.80;;
9809;SDS011;4944;52.514;13.192;2022-11-20T05:00:37;13.33;;;9.97;;
9809;SDS011;4944;52.514;13.192;2022-11-20T05:03:03;13.33;;;10.20;;
9809;SDS011;4944;52.514;13.192;2022-11-20T05:05:31;12.90;;;9.63;;
9809;SDS011;4944;52.514;13.192;2022-11-20T05:07:59;11.93;;;9.63;;
9809;SDS011;4944;52.514;13.192;2022-11-20T05:10:26;12.30;;;9.97;;
9809;SDS011;4944;52.514;13.192;2022-11-20T05:12:53;13.17;;;9.43;;
9809;SDS011;4944;52.514;13.192;2022-11-20T05:15:20;12.83;;;9.67;;
9809;SDS011;4944;52.514;13.192;2022-11-20T05:17:49;12.73;;;10.30;;
9809;SDS011;4944;52.514;13.192;2022-11-20T05:20:16;12.30;;;9.43;;
9809;SDS011;4944;52.514;13.192;2022-11-20T05:22:44;13.53;;;10.43;;
9809;SDS011;4944;52.514;13.192;2022-11-20T05:25:11;12.40;;;9.20;;
9809;SDS011;4944;52.514;13.192;2022-11-20T05:27:38;11.27;;;9.10;;
9809;SDS011;4944;52.514;13.192;2022-11-20T05:30:05;12.83;;;9.97;;
9809;SDS011;4944;52.514;13.192;2022-11-20T05:32:33;15.70;;;9.87;;
9809;SDS011;4944;52.514;13.192;2022-11-20T05:35:02;14.30;;;9.93;;
9809;SDS011;4944;52.514;13.192;2022-11-20T05:37:29;12.77;;;9.70;;
9809;SDS011;4944;52.514;13.192;2022-11-20T05:39:56;12.27;;;9.33;;
9809;SDS011;4944;52.514;13.192;2022-11-20T05:42:22;13.40;;;10.40;;
9809;SDS011;4944;52.514;13.192;2022-11-20T05:44:59;11.50;;;9.47;;
9809;SDS011;4944;52.514;13.192;2022-11-20T05:47:27;14.57;;;10.17;;
9809;SDS011;4944;52.514;13.192;2022-11-20T05:49:57;12.97;;;9.50;;
9809;SDS011;4944;52.514;13.192;2022-11-20T05:52:27;13.87;;;9.77;;
9809;SDS011;4944;52.514;13.192;2022-11-20T05:54:54;13.50;;;10.33;;
9809;SDS011;4944;52.514;13.192;2022-11-20T05:57:21;12.10;;;9.80;;
9809;SDS011;4944;52.514;13.192;2022-11-20T05:59:48;14.93;;;10.50;;
9809;SDS011;4944;52.514;13.192;2022-11-20T06:02:15;12.23;;;10.13;;
9809;SDS011;4944;52.514;13.192;2022-11-20T06:04:42;12.90;;;9.90;;
9809;SDS011;4944;52.514;13.192;2022-11-20T06:07:09;14.50;;;10.23;;
9809;SDS011;4944;52.514;13.192;2022-11-20T06:09:37;14.07;;;10.70;;
9809;SDS011;4944;52.514;13.192;2022-11-20T06:12:04;15.30;;;10.53;;
9809;SDS011;4944;52.514;13.192;2022-11-20T06:14:32;14.90;;;10.00;;
9809;SDS011;4944;52.514;13.192;2022-11-20T06:16:59;14.37;;;9.90;;
9809;SDS011;4944;52.514;13.192;2022-11-20T06:19:26;10.93;;;9.60;;
9809;SDS011;4944;52.514;13.192;2022-11-20T06:21:52;12.10;;;10.13;;
9809;SDS011;4944;52.514;13.192;2022-11-20T06:24:19;14.40;;;10.43;;
9809;SDS011;4944;52.514;13.192;2022-11-20T06:26:48;13.00;;;10.23;;
9809;SDS011;4944;52.514;13.192;2022-11-20T06:29:15;13.07;;;10.03;;
9809;SDS011;4944;52.514;13.192;2022-11-20T06:31:42;17.27;;;11.27;;
9809;SDS011;4944;52.514;13.192;2022-11-20T06:34:09;12.60;;;9.63;;
9809;SDS011;4944;52.514;13.192;2022-11-20T06:36:36;12.87;;;9.70;;
9809;SDS011;4944;52.514;13.192;2022-11-20T06:39:03;13.93;;;10.30;;
9809;SDS011;4944;52.514;13.192;2022-11-20T06:41:30;13.83;;;10.53;;
9809;SDS011;4944;52.514;13.192;2022-11-20T06:43:58;12.37;;;10.20;;
9809;SDS011;4944;52.514;13.192;2022-11-20T06:46:25;12.13;;;9.70;;
9809;SDS011;4944;52.514;13.192;2022-11-20T06:48:52;13.47;;;9.43;;
9809;SDS011;4944;52.514;13.192;2022-11-20T06:51:19;11.90;;;9.53;;
9809;SDS011;4944;52.514;13.192;2022-11-20T06:53:46;14.00;;;10.00;;
9809;SDS011;4944;52.514;13.192;2022-11-20T06:56:13;13.27;;;10.30;;
9809;SDS011;4944;52.514;13.192;2022-11-20T06:58:40;14.47;;;10.53;;
9809;SDS011;4944;52.514;13.192;2022-11-20T07:01:10;13.37;;;10.37;;
9809;SDS011;4944;52.514;13.192;2022-11-20T07:03:38;13.13;;;10.63;;
9809;SDS011;4944;52.514;13.192;2022-11-20T07:06:06;14.47;;;10.20;;
9809;SDS011;4944;52.514;13.192;2022-11-20T07:08:33;14.13;;;10.47;;
9809;SDS011;4944;52.514;13.192;2022-11-20T07:11:01;12.83;;;10.40;;
9809;SDS011;4944;52.514;13.192;2022-11-20T07:13:30;14.13;;;10.23;;
9809;SDS011;4944;52.514;13.192;2022-11-20T07:15:59;13.80;;;10.83;;
9809;SDS011;4944;52.514;13.192;2022-11-20T07:18:27;14.77;;;10.40;;
9809;SDS011;4944;52.514;13.192;2022-11-20T07:20:54;14.03;;;10.53;;
9809;SDS011;4944;52.514;13.192;2022-11-20T07:23:21;15.33;;;11.00;;
9809;SDS011;4944;52.514;13.192;2022-11-20T07:25:48;13.77;;;11.00;;
9809;SDS011;4944;52.514;13.192;2022-11-20T07:28:15;13.43;;;10.67;;
9809;SDS011;4944;52.514;13.192;2022-11-20T07:30:42;15.50;;;11.90;;
9809;SDS011;4944;52.514;13.192;2022-11-20T07:33:09;14.87;;;11.30;;
9809;SDS011;4944;52.514;13.192;2022-11-20T07:35:37;13.60;;;10.70;;
9809;SDS011;4944;52.514;13.192;2022-11-20T07:38:04;15.60;;;11.13;;
9809;SDS011;4944;52.514;13.192;2022-11-20T07:40:31;14.97;;;11.60;;
9809;SDS011;4944;52.514;13.192;2022-11-20T07:42:58;14.13;;;11.07;;
9809;SDS011;4944;52.514;13.192;2022-11-20T07:45:25;16.30;;;11.33;;
9809;SDS011;4944;52.514;13.192;2022-11-20T07:47:52;16.63;;;11.67;;
9809;SDS011;4944;52.514;13.192;2022-11-20T07:50:19;15.13;;;10.53;;
9809;SDS011;4944;52.514;13.192;2022-11-20T07:52:48;14.13;;;11.17;;
9809;SDS011;4944;52.514;13.192;2022-11-20T07:55:15;14.53;;;10.80;;
9809;SDS011;4944;52.514;13.192;2022-11-20T07:57:42;13.40;;;10.80;;
9809;SDS011;4944;52.514;13.192;2022-11-20T08:00:10;12.07;;;10.10;;
9809;SDS011;4944;52.514;13.192;2022-11-20T08:02:38;14.60;;;10.80;;
9809;SDS011;4944;52.514;13.192;2022-11-20T08:05:05;13.80;;;10.20;;
9809;SDS011;4944;52.514;13.192;2022-11-20T08:07:36;13.60;;;9.83;;
9809;SDS011;4944;52.514;13.192;2022-11-20T08:10:05;12.83;;;10.03;;
9809;SDS011;4944;52.514;13.192;2022-11-20T08:12:33;13.17;;;10.33;;
9809;SDS011;4944;52.514;13.192;2022-11-20T08:15:17;13.87;;;10.93;;
9809;SDS011;4944;52.514;13.192;2022-11-20T08:17:44;13.83;;;10.83;;
9809;SDS011;4944;52.514;13.192;2022-11-20T08:20:11;13.70;;;10.57;;
9809;SDS011;4944;52.514;13.192;2022-11-20T08:22:38;13.73;;;10.33;;
9809;SDS011;4944;52.514;13.192;2022-11-20T08:25:09;12.90;;;10.10;;
9809;SDS011;4944;52.514;13.192;2022-11-20T08:27:36;14.63;;;10.83;;
9809;SDS011;4944;52.514;13.192;2022-11-20T08:30:03;15.23;;;11.17;;
9809;SDS011;4944;52.514;13.192;2022-11-20T08:32:31;12.33;;;9.90;;
9809;SDS011;4944;52.514;13.192;2022-11-20T08:35:00;13.97;;;10.43;;
9809;SDS011;4944;52.514;13.192;2022-11-20T08:37:26;14.03;;;10.57;;
9809;SDS011;4944;52.514;13.192;2022-11-20T08:39:53;13.07;;;10.07;;
9809;SDS011;4944;52.514;13.192;2022-11-20T08:42:23;14.77;;;10.37;;
9809;SDS011;4944;52.514;13.192;2022-11-20T08:44:50;12.43;;;10.20;;
9809;SDS011;4944;52.514;13.192;2022-11-20T08:47:17;12.80;;;9.63;;
9809;SDS011;4944;52.514;13.192;2022-11-20T08:49:43;14.13;;;10.20;;
9809;SDS011;4944;52.514;13.192;2022-11-20T08:52:10;10.73;;;9.47;;
9809;SDS011;4944;52.514;13.192;2022-11-20T08:54:37;13.10;;;10.40;;
9809;SDS011;4944;52.514;13.192;2022-11-20T08:57:04;14.47;;;10.87;;
9809;SDS011;4944;52.514;13.192;2022-11-20T08:59:32;12.60;;;9.93;;
9809;SDS011;4944;52.514;13.192;2022-11-20T09:01:59;11.80;;;9.70;;
9809;SDS011;4944;52.514;13.192;2022-11-20T09:04:26;11.67;;;9.40;;
9809;SDS011;4944;52.514;13.192;2022-11-20T09:06:53;12.30;;;9.87;;
9809;SDS011;4944;52.514;13.192;2022-11-20T09:09:20;12.87;;;9.90;;
9809;SDS011;4944;52.514;13.192;2022-11-20T09:11:46;13.27;;;10.07;;
9809;SDS011;4944;52.514;13.192;2022-11-20T09:14:14;11.93;;;8.57;;
9809;SDS011;4944;52.514;13.192;2022-11-20T09:16:44;12.23;;;9.63;;
9809;SDS011;4944;52.514;13.192;2022-11-20T09:19:11;11.60;;;9.10;;
9809;SDS011;4944;52.514;13.192;2022-11-20T09:21:38;12.20;;;9.67;;
9809;SDS011;4944;52.514;13.192;2022-11-20T09:24:05;11.27;;;9.40;;
9809;SDS011;4944;52.514;13.192;2022-11-20T09:26:32;15.97;;;11.87;;
9809;SDS011;4944;52.514;13.192;2022-11-20T09:28:59;14.33;;;11.63;;
9809;SDS011;4944;52.514;13.192;2022-11-20T09:31:26;12.07;;;9.33;;
9809;SDS011;4944;52.514;13.192;2022-11-20T09:33:54;12.13;;;9.27;;
9809;SDS011;4944;52.514;13.192;2022-11-20T09:36:21;14.60;;;9.93;;
9809;SDS011;4944;52.514;13.192;2022-11-20T09:38:48;12.37;;;10.10;;
9809;SDS011;4944;52.514;13.192;2022-11-20T09:41:28;12.00;;;10.03;;
9809;SDS011;4944;52.514;13.192;2022-11-20T09:44:07;12.43;;;9.83;;
9809;SDS011;4944;52.514;13.192;2022-11-20T09:46:45;12.30;;;10.03;;
9809;SDS011;4944;52.514;13.192;2022-11-20T09:49:23;11.97;;;9.40;;
9809;SDS011;4944;52.514;13.192;2022-11-20T09:51:58;10.33;;;8.97;;
9809;SDS011;4944;52.514;13.192;2022-11-20T09:54:27;11.70;;;9.23;;
9809;SDS011;4944;52.514;13.192;2022-11-20T09:56:59;11.57;;;8.83;;
9809;SDS011;4944;52.514;13.192;2022-11-20T09:59:33;12.03;;;9.20;;
9809;SDS011;4944;52.514;13.192;2022-11-20T10:02:03;11.33;;;9.07;;
9809;SDS011;4944;52.514;13.192;2022-11-20T10:04:43;11.50;;;8.27;;
9809;SDS011;4944;52.514;13.192;2022-11-20T10:07:15;10.13;;;8.73;;
9809;SDS011;4944;52.514;13.192;2022-11-20T10:09:48;9.57;;;8.30;;
9809;SDS011;4944;52.514;13.192;2022-11-20T10:12:19;10.27;;;8.07;;
9809;SDS011;4944;52.514;13.192;2022-11-20T10:14:57;10.33;;;8.37;;
9809;SDS011;4944;52.514;13.192;2022-11-20T10:17:33;10.57;;;8.60;;
9809;SDS011;4944;52.514;13.192;2022-11-20T10:20:16;9.97;;;7.93;;
9809;SDS011;4944;52.514;13.192;2022-11-20T10:22:55;8.93;;;7.83;;
9809;SDS011;4944;52.514;13.192;2022-11-20T10:25:37;10.23;;;8.53;;
9809;SDS011;4944;52.514;13.192;2022-11-20T10:28:10;11.37;;;8.97;;
9809;SDS011;4944;52.514;13.192;2022-11-20T10:30:46;9.33;;;8.23;;
9809;SDS011;4944;52.514;13.192;2022-11-20T10:33:19;9.67;;;8.20;;
9809;SDS011;4944;52.514;13.192;2022-11-20T10:35:52;9.50;;;7.80;;
9809;SDS011;4944;52.514;13.192;2022-11-20T10:38:24;9.77;;;8.00;;
9809;SDS011;4944;52.514;13.192;2022-11-20T10:40:58;10.90;;;8.10;;
9809;SDS011;4944;52.514;13.192;2022-11-20T10:43:41;9.37;;;7.50;;
9809;SDS011;4944;52.514;13.192;2022-11-20T10:46:10;8.23;;;7.30;;
9809;SDS011;4944;52.514;13.192;2022-11-20T10:48:41;8.60;;;7.70;;
9809;SDS011;4944;52.514;13.192;2022-11-20T10:51:18;8.70;;;7.53;;
9809;SDS011;4944;52.514;13.192;2022-11-20T10:54:03;7.97;;;7.13;;
9809;SDS011;4944;52.514;13.192;2022-11-20T10:56:42;11.50;;;10.30;;
9809;SDS011;4944;52.514;13.192;2022-11-20T11:02:18;9.47;;;7.57;;
9809;SDS011;4944;52.514;13.192;2022-11-20T11:04:46;7.63;;;6.83;;
9809;SDS011;4944;52.514;13.192;2022-11-20T11:07:16;9.10;;;7.23;;
9809;SDS011;4944;52.514;13.192;2022-11-20T11:09:48;9.23;;;6.90;;
9809;SDS011;4944;52.514;13.192;2022-11-20T11:12:16;8.77;;;7.57;;
9809;SDS011;4944;52.514;13.192;2022-11-20T11:14:47;8.77;;;6.63;;
9809;SDS011;4944;52.514;13.192;2022-11-20T11:17:22;8.10;;;6.80;;
9809;SDS011;4944;52.514;13.192;2022-11-20T11:19:59;7.80;;;7.03;;
9809;SDS011;4944;52.514;13.192;2022-11-20T11:22:29;8.07;;;7.13;;
9809;SDS011;4944;52.514;13.192;2022-11-20T11:24:58;7.00;;;6.40;;
9809;SDS011;4944;52.514;13.192;2022-11-20T11:27:25;7.80;;;6.77;;
9809;SDS011;4944;52.514;13.192;2022-11-20T11:30:01;7.73;;;7.03;;
9809;SDS011;4944;52.514;13.192;2022-11-20T11:32:30;8.13;;;6.50;;
9809;SDS011;4944;52.514;13.192;2022-11-20T11:35:00;7.57;;;6.50;;
9809;SDS011;4944;52.514;13.192;2022-11-20T11:37:32;7.60;;;6.67;;
9809;SDS011;4944;52.514;13.192;2022-11-20T11:40:00;9.47;;;7.70;;
9809;SDS011;4944;52.514;13.192;2022-11-20T11:42:27;7.73;;;6.93;;
9809;SDS011;4944;52.514;13.192;2022-11-20T11:44:55;8.03;;;7.07;;
9809;SDS011;4944;52.514;13.192;2022-11-20T11:47:33;8.17;;;6.80;;
9809;SDS011;4944;52.514;13.192;2022-11-20T11:50:14;8.47;;;7.63;;
9809;SDS011;4944;52.514;13.192;2022-11-20T11:52:45;10.13;;;8.07;;
9809;SDS011;4944;52.514;13.192;2022-11-20T11:55:19;9.50;;;7.33;;
9809;SDS011;4944;52.514;13.192;2022-11-20T11:57:54;8.60;;;6.70;;
9809;SDS011;4944;52.514;13.192;2022-11-20T12:00:27;7.60;;;6.80;;
9809;SDS011;4944;52.514;13.192;2022-11-20T12:02:57;7.47;;;6.67;;
9809;SDS011;4944;52.514;13.192;2022-11-20T12:05:32;7.17;;;6.47;;
9809;SDS011;4944;52.514;13.192;2022-11-20T12:08:06;8.13;;;7.03;;
9809;SDS011;4944;52.514;13.192;2022-11-20T12:10:43;7.93;;;7.20;;
9809;SDS011;4944;52.514;13.192;2022-11-20T12:16:07;7.17;;;6.47;;
9809;SDS011;4944;52.514;13.192;2022-11-20T12:18:39;6.80;;;6.20;;
9809;SDS011;4944;52.514;13.192;2022-11-20T12:21:11;7.07;;;6.10;;
9809;SDS011;4944;52.514;13.192;2022-11-20T12:26:44;7.23;;;5.80;;
9809;SDS011;4944;52.514;13.192;2022-11-20T12:29:19;5.60;;;5.10;;
9809;SDS011;4944;52.514;13.192;2022-11-20T12:31:57;6.80;;;5.90;;
9809;SDS011;4944;52.514;13.192;2022-11-20T12:34:47;6.90;;;5.70;;
9809;SDS011;4944;52.514;13.192;2022-11-20T12:37:29;6.67;;;6.00;;
9809;SDS011;4944;52.514;13.192;2022-11-20T12:40:09;6.43;;;5.73;;
9809;SDS011;4944;52.514;13.192;2022-11-20T12:42:52;6.90;;;6.13;;
9809;SDS011;4944;52.514;13.192;2022-11-20T12:45:48;7.63;;;5.87;;
9809;SDS011;4944;52.514;13.192;2022-11-20T12:48:36;7.00;;;6.13;;
9809;SDS011;4944;52.514;13.192;2022-11-20T12:51:18;6.97;;;6.27;;
9809;SDS011;4944;52.514;13.192;2022-11-20T12:54:06;7.07;;;6.13;;
9809;SDS011;4944;52.514;13.192;2022-11-20T12:56:56;7.00;;;6.30;;
9809;SDS011;4944;52.514;13.192;2022-11-20T12:59:34;8.70;;;6.27;;
9809;SDS011;4944;52.514;13.192;2022-11-20T13:02:27;8.47;;;6.47;;
9809;SDS011;4944;52.514;13.192;2022-11-20T13:05:09;7.20;;;5.93;;
9809;SDS011;4944;52.514;13.192;2022-11-20T13:07:44;7.40;;;6.40;;
9809;SDS011;4944;52.514;13.192;2022-11-20T13:10:14;7.27;;;6.57;;
9809;SDS011;4944;52.514;13.192;2022-11-20T13:12:48;7.70;;;6.77;;
9809;SDS011;4944;52.514;13.192;2022-11-20T13:15:23;7.50;;;6.73;;
9809;SDS011;4944;52.514;13.192;2022-11-20T13:18:03;7.07;;;6.40;;
9809;SDS011;4944;52.514;13.192;2022-11-20T13:20:31;7.77;;;6.57;;
9809;SDS011;4944;52.514;13.192;2022-11-20T13:23:00;7.77;;;6.93;;
9809;SDS011;4944;52.514;13.192;2022-11-20T13:25:28;8.47;;;7.03;;
9809;SDS011;4944;52.514;13.192;2022-11-20T13:27:58;8.57;;;6.93;;
9809;SDS011;4944;52.514;13.192;2022-11-20T13:30:27;7.73;;;6.50;;
9809;SDS011;4944;52.514;13.192;2022-11-20T13:32:55;8.07;;;6.70;;
9809;SDS011;4944;52.514;13.192;2022-11-20T13:35:28;7.80;;;6.60;;
9809;SDS011;4944;52.514;13.192;2022-11-20T13:38:00;8.10;;;6.67;;
9809;SDS011;4944;52.514;13.192;2022-11-20T13:40:38;7.07;;;6.37;;
9809;SDS011;4944;52.514;13.192;2022-11-20T13:43:20;7.37;;;6.67;;
9809;SDS011;4944;52.514;13.192;2022-11-20T13:45:59;7.37;;;6.07;;
9809;SDS011;4944;52.514;13.192;2022-11-20T13:48:29;6.87;;;6.17;;
9809;SDS011;4944;52.514;13.192;2022-11-20T13:51:01;9.37;;;7.87;;
9809;SDS011;4944;52.514;13.192;2022-11-20T13:53:51;7.77;;;7.07;;
9809;SDS011;4944;52.514;13.192;2022-11-20T13:56:45;8.27;;;7.23;;
9809;SDS011;4944;52.514;13.192;2022-11-20T13:59:27;6.77;;;6.13;;
9809;SDS011;4944;52.514;13.192;2022-11-20T14:02:05;7.23;;;5.83;;
9809;SDS011;4944;52.514;13.192;2022-11-20T14:04:37;7.53;;;5.80;;
9809;SDS011;4944;52.514;13.192;2022-11-20T14:07:09;7.97;;;6.90;;
9809;SDS011;4944;52.514;13.192;2022-11-20T14:09:36;8.10;;;7.07;;
9809;SDS011;4944;52.514;13.192;2022-11-20T14:12:03;7.80;;;6.50;;
9809;SDS011;4944;52.514;13.192;2022-11-20T14:14:48;7.93;;;6.87;;
9809;SDS011;4944;52.514;13.192;2022-11-20T14:17:18;8.03;;;6.43;;
9809;SDS011;4944;52.514;13.192;2022-11-20T14:19:46;7.13;;;6.40;;
9809;SDS011;4944;52.514;13.192;2022-11-20T14:22:18;8.87;;;7.33;;
9809;SDS011;4944;52.514;13.192;2022-11-20T14:24:46;7.37;;;6.57;;
9809;SDS011;4944;52.514;13.192;2022-11-20T14:27:14;6.80;;;6.10;;
9809;SDS011;4944;52.514;13.192;2022-11-20T14:29:43;6.50;;;5.90;;
9809;SDS011;4944;52.514;13.192;2022-11-20T14:32:15;6.90;;;6.13;;
9809;SDS011;4944;52.514;13.192;2022-11-20T14:34:44;8.43;;;6.17;;
9809;SDS011;4944;52.514;13.192;2022-11-20T14:37:16;8.17;;;6.30;;
9809;SDS011;4944;52.514;13.192;2022-11-20T14:39:48;7.77;;;6.40;;
9809;SDS011;4944;52.514;13.192;2022-11-20T14:42:17;8.50;;;6.70;;
9809;SDS011;4944;52.514;13.192;2022-11-20T14:44:45;6.80;;;6.10;;
9809;SDS011;4944;52.514;13.192;2022-11-20T14:47:15;6.67;;;6.00;;
9809;SDS011;4944;52.514;13.192;2022-11-20T14:49:46;6.73;;;6.03;;
9809;SDS011;4944;52.514;13.192;2022-11-20T14:52:14;7.20;;;6.50;;
9809;SDS011;4944;52.514;13.192;2022-11-20T14:54:43;7.23;;;6.53;;
9809;SDS011;4944;52.514;13.192;2022-11-20T14:57:19;6.73;;;6.13;;
9809;SDS011;4944;52.514;13.192;2022-11-20T14:59:48;7.37;;;6.57;;
9809;SDS011;4944;52.514;13.192;2022-11-20T15:02:15;6.57;;;5.93;;
9809;SDS011;4944;52.514;13.192;2022-11-20T15:04:47;6.53;;;5.93;;
9809;SDS011;4944;52.514;13.192;2022-11-20T15:07:24;7.00;;;6.30;;
9809;SDS011;4944;52.514;13.192;2022-11-20T15:09:59;7.83;;;6.37;;
9809;SDS011;4944;52.514;13.192;2022-11-20T15:12:32;7.03;;;6.43;;
9809;SDS011;4944;52.514;13.192;2022-11-20T15:15:01;8.27;;;6.00;;
9809;SDS011;4944;52.514;13.192;2022-11-20T15:17:30;7.73;;;6.70;;